createdAt,value
2018-05-03T00:00:02.297Z,3.90
2018-05-03T00:02:31.750Z,4.33
2018-05-03T00:05:00.993Z,4.77
2018-05-03T00:07:30.229Z,4.37
2018-05-03T00:10:00.312Z,4.17
2018-05-03T00:12:29.715Z,4.20
2018-05-03T00:14:58.916Z,4.70
2018-05-03T00:17:28.115Z,4.73
2018-05-03T00:19:57.304Z,4.50
2018-05-03T00:22:29.460Z,4.97
2018-05-03T00:24:58.672Z,4.73
2018-05-03T00:27:27.979Z,4.50
2018-05-03T00:29:57.171Z,4.90
2018-05-03T00:32:26.606Z,4.50
2018-05-03T00:34:55.815Z,4.53
2018-05-03T00:37:25.771Z,4.93
2018-05-03T00:39:54.936Z,4.80
2018-05-03T00:42:25.028Z,4.90
2018-05-03T00:44:54.265Z,4.60
2018-05-03T00:47:24.218Z,4.87
2018-05-03T00:49:53.520Z,5.17
2018-05-03T00:52:22.791Z,5.17
2018-05-03T00:54:52.731Z,4.97
2018-05-03T00:57:21.925Z,5.00
2018-05-03T00:59:50.938Z,5.03
2018-05-03T01:02:20.187Z,5.10
2018-05-03T01:04:49.506Z,4.80
2018-05-03T01:07:18.832Z,4.80
2018-05-03T01:09:48.090Z,4.70
2018-05-03T01:12:17.329Z,4.80
2018-05-03T01:14:47.322Z,4.80
2018-05-03T01:17:16.576Z,5.30
2018-05-03T01:19:45.875Z,5.03
2018-05-03T01:22:15.147Z,4.83
2018-05-03T01:24:44.382Z,4.87
2018-05-03T01:27:13.718Z,4.50
2018-05-03T01:29:43.015Z,4.40
2018-05-03T01:32:13.072Z,4.83
2018-05-03T01:34:42.316Z,4.70
2018-05-03T01:37:11.556Z,4.50
2018-05-03T01:39:41.589Z,4.50
2018-05-03T01:42:10.882Z,4.63
2018-05-03T01:44:40.152Z,4.53
2018-05-03T01:47:09.421Z,4.27
2018-05-03T01:49:39.537Z,4.83
2018-05-03T01:52:09.541Z,4.60
2018-05-03T01:54:38.865Z,4.70
2018-05-03T01:57:08.148Z,4.27
2018-05-03T01:59:38.596Z,4.53
2018-05-03T02:02:07.784Z,4.43
2018-05-03T02:04:37.073Z,4.97
2018-05-03T02:07:06.321Z,4.20
2018-05-03T02:09:35.585Z,4.80
2018-05-03T02:12:05.614Z,4.13
2018-05-03T02:14:34.902Z,4.17
2018-05-03T02:17:04.915Z,4.57
2018-05-03T02:19:36.023Z,4.90
2018-05-03T02:22:05.371Z,4.50
2018-05-03T02:24:34.646Z,4.87
2018-05-03T02:27:03.961Z,4.37
2018-05-03T02:29:33.335Z,4.40
2018-05-03T02:32:03.432Z,4.10
2018-05-03T02:34:32.851Z,4.57
2018-05-03T02:37:02.194Z,4.40
2018-05-03T02:39:31.534Z,4.53
2018-05-03T02:42:01.871Z,4.50
2018-05-03T02:44:31.302Z,3.80
2018-05-03T02:47:01.628Z,4.43
2018-05-03T02:49:30.997Z,4.47
2018-05-03T02:52:00.409Z,4.20
2018-05-03T02:54:29.797Z,5.00
2018-05-03T02:57:11.736Z,4.50
2018-05-03T02:59:53.619Z,4.90
2018-05-03T03:02:29.218Z,4.33
2018-05-03T03:05:16.210Z,4.50
2018-05-03T03:11:36.051Z,4.90
2018-05-03T03:14:27.625Z,5.17
2018-05-03T03:17:15.021Z,5.27
2018-05-03T03:19:53.540Z,5.20
2018-05-03T03:22:40.435Z,5.37
2018-05-03T03:28:57.663Z,5.23
2018-05-03T03:31:44.612Z,5.77
2018-05-03T03:34:28.476Z,5.50
2018-05-03T03:37:15.469Z,5.73
2018-05-03T03:40:02.329Z,5.43
2018-05-03T03:45:44.177Z,5.47
2018-05-03T03:48:14.140Z,5.50
2018-05-03T03:50:43.439Z,5.70
2018-05-03T03:53:12.716Z,5.40
2018-05-03T03:55:42.050Z,5.50
2018-05-03T03:58:11.425Z,5.63
2018-05-03T04:00:40.757Z,5.63
2018-05-03T04:03:10.001Z,5.60
2018-05-03T04:05:39.256Z,5.67
2018-05-03T04:08:09.252Z,5.90
2018-05-03T04:10:38.464Z,5.20
2018-05-03T04:13:07.677Z,5.50
2018-05-03T04:15:36.905Z,5.67
2018-05-03T04:18:18.627Z,5.73
2018-05-03T04:21:09.621Z,5.33
2018-05-03T04:23:50.766Z,5.20
2018-05-03T04:26:20.085Z,5.80
2018-05-03T04:28:49.373Z,5.93
2018-05-03T04:31:18.699Z,5.53
2018-05-03T04:33:47.962Z,5.80
2018-05-03T04:36:18.024Z,5.77
2018-05-03T04:38:47.316Z,5.70
2018-05-03T04:41:16.542Z,5.70
2018-05-03T04:43:45.840Z,5.33
2018-05-03T04:46:15.936Z,5.63
2018-05-03T04:48:45.228Z,5.60
2018-05-03T04:51:14.501Z,5.50
2018-05-03T04:53:44.473Z,5.80
2018-05-03T04:56:13.852Z,5.83
2018-05-03T04:58:43.073Z,6.07
2018-05-03T05:01:12.300Z,5.47
2018-05-03T05:03:41.633Z,5.37
2018-05-03T05:06:10.945Z,5.43
2018-05-03T05:08:40.274Z,5.53
2018-05-03T05:11:10.274Z,5.50
2018-05-03T05:13:39.542Z,5.23
2018-05-03T05:16:08.805Z,5.23
2018-05-03T05:18:38.049Z,5.70
2018-05-03T05:21:07.495Z,5.63
2018-05-03T05:23:36.802Z,5.20
2018-05-03T05:26:06.055Z,5.50
2018-05-03T05:28:36.465Z,5.70
2018-05-03T05:31:06.001Z,5.47
2018-05-03T05:33:36.072Z,5.70
2018-05-03T05:36:05.390Z,5.13
2018-05-03T05:38:35.239Z,5.43
2018-05-03T05:41:05.521Z,5.30
2018-05-03T05:43:34.828Z,5.40
2018-05-03T05:46:04.207Z,5.93
2018-05-03T05:48:33.593Z,5.83
2018-05-03T05:51:02.940Z,6.00
2018-05-03T05:53:33.402Z,5.10
2018-05-03T05:56:02.718Z,5.47
2018-05-03T05:58:33.322Z,5.87
2018-05-03T06:01:02.440Z,5.47
2018-05-03T06:03:31.393Z,5.47
2018-05-03T06:06:00.371Z,5.13
2018-05-03T06:08:30.200Z,5.13
2018-05-03T06:10:59.100Z,5.60
2018-05-03T06:13:28.095Z,5.00
2018-05-03T06:15:57.075Z,5.20
2018-05-03T06:18:26.044Z,5.13
2018-05-03T06:20:55.041Z,5.63
2018-05-03T06:23:24.782Z,5.13
2018-05-03T06:25:53.760Z,5.00
2018-05-03T06:28:23.484Z,5.70
2018-05-03T06:30:52.475Z,5.53
2018-05-03T06:33:21.420Z,5.40
2018-05-03T06:35:50.404Z,5.20
2018-05-03T06:38:19.376Z,4.93
2018-05-03T06:40:48.700Z,4.67
2018-05-03T06:43:17.938Z,7.77
2018-05-03T06:45:47.244Z,5.13
2018-05-03T06:48:16.503Z,4.90
2018-05-03T06:50:45.715Z,5.20
2018-05-03T06:53:15.039Z,5.13
2018-05-03T06:55:44.223Z,4.93
2018-05-03T06:58:13.546Z,4.80
2018-05-03T07:00:42.913Z,4.90
2018-05-03T07:03:12.292Z,5.07
2018-05-03T07:05:41.481Z,5.37
2018-05-03T07:08:11.583Z,5.10
2018-05-03T07:10:40.796Z,5.00
2018-05-03T07:13:10.804Z,4.80
2018-05-03T07:15:40.039Z,5.07
2018-05-03T07:18:09.959Z,4.40
2018-05-03T07:20:39.145Z,4.83
2018-05-03T07:23:08.366Z,4.87
2018-05-03T07:25:37.587Z,4.73
2018-05-03T07:28:06.819Z,4.90
2018-05-03T07:30:37.013Z,4.37
2018-05-03T07:33:06.271Z,4.63
2018-05-03T07:35:35.469Z,4.67
2018-05-03T07:38:04.684Z,5.30
2018-05-03T07:40:34.078Z,6.47
2018-05-03T07:43:03.273Z,4.93
2018-05-03T07:45:32.592Z,5.07
2018-05-03T07:48:01.741Z,4.77
2018-05-03T07:50:30.952Z,5.07
2018-05-03T07:53:00.191Z,5.20
2018-05-03T07:55:29.405Z,4.70
2018-05-03T07:57:58.620Z,4.90
2018-05-03T08:00:28.761Z,4.70
2018-05-03T08:02:58.712Z,5.03
2018-05-03T08:05:27.962Z,4.30
2018-05-03T08:07:58.101Z,4.70
2018-05-03T08:10:28.140Z,4.30
2018-05-03T08:12:57.476Z,4.50
2018-05-03T08:15:26.961Z,4.70
2018-05-03T08:17:56.178Z,4.43
2018-05-03T08:20:25.657Z,4.17
2018-05-03T08:22:54.851Z,4.00
2018-05-03T08:25:24.176Z,4.17
2018-05-03T08:27:53.463Z,4.53
2018-05-03T08:30:22.720Z,4.70
2018-05-03T08:32:51.908Z,4.20
2018-05-03T08:35:21.981Z,4.47
2018-05-03T08:37:51.140Z,3.87
2018-05-03T08:40:20.373Z,4.27
2018-05-03T08:42:49.775Z,4.60
2018-05-03T08:45:18.990Z,4.00
2018-05-03T08:47:48.273Z,3.80
2018-05-03T08:50:17.494Z,3.47
2018-05-03T08:52:46.710Z,3.70
2018-05-03T08:55:16.787Z,3.87
2018-05-03T08:57:46.267Z,3.53
2018-05-03T09:00:15.502Z,3.77
2018-05-03T09:02:44.653Z,3.50
2018-05-03T09:05:14.623Z,3.80
2018-05-03T09:07:43.979Z,3.80
2018-05-03T09:10:13.304Z,4.10
2018-05-03T09:12:42.499Z,4.27
2018-05-03T09:15:11.697Z,3.70
2018-05-03T09:17:40.911Z,4.43
2018-05-03T09:20:10.104Z,3.87
2018-05-03T09:22:39.311Z,4.53
2018-05-03T09:25:08.595Z,4.40
2018-05-03T09:27:37.616Z,4.63
2018-05-03T09:30:06.890Z,4.40
2018-05-03T09:32:36.188Z,4.40
2018-05-03T09:35:05.405Z,3.90
2018-05-03T09:37:34.674Z,4.27
2018-05-03T09:40:03.837Z,4.30
2018-05-03T09:42:33.114Z,3.90
2018-05-03T09:45:02.382Z,3.80
2018-05-03T09:47:31.684Z,4.60
2018-05-03T09:50:00.968Z,3.93
2018-05-03T09:52:30.300Z,4.00
2018-05-03T09:54:59.593Z,3.73
2018-05-03T09:57:28.917Z,3.40
2018-05-03T09:59:58.932Z,3.37
2018-05-03T10:02:28.217Z,3.70
2018-05-03T10:04:57.448Z,3.60
2018-05-03T10:07:26.672Z,3.43
2018-05-03T10:09:55.887Z,3.33
2018-05-03T10:12:25.305Z,3.30
2018-05-03T10:14:54.600Z,3.07
2018-05-03T10:17:23.900Z,3.97
2018-05-03T10:19:53.130Z,3.30
2018-05-03T10:22:22.451Z,3.80
2018-05-03T10:24:52.395Z,3.00
2018-05-03T10:27:21.609Z,3.20
2018-05-03T10:29:51.055Z,2.90
2018-05-03T10:32:20.360Z,3.07
2018-05-03T10:34:49.676Z,3.20
2018-05-03T10:37:19.017Z,2.90
2018-05-03T10:39:48.200Z,3.10
2018-05-03T10:42:17.465Z,2.97
2018-05-03T10:44:47.446Z,3.00
2018-05-03T10:47:16.630Z,4.17
2018-05-03T10:49:45.822Z,3.90
2018-05-03T10:52:15.052Z,3.73
2018-05-03T10:54:44.350Z,3.80
2018-05-03T10:57:13.545Z,4.13
2018-05-03T10:59:42.824Z,4.00
2018-05-03T11:02:12.047Z,3.63
2018-05-03T11:04:41.224Z,3.90
2018-05-03T11:07:10.618Z,3.53
2018-05-03T11:09:39.721Z,3.57
2018-05-03T11:12:08.918Z,3.60
2018-05-03T11:14:38.240Z,3.50
2018-05-03T11:17:07.615Z,3.40
2018-05-03T11:19:36.873Z,3.43
2018-05-03T11:22:06.067Z,3.47
2018-05-03T11:24:35.305Z,3.50
2018-05-03T11:27:04.824Z,3.67
2018-05-03T11:29:34.225Z,3.23
2018-05-03T11:32:03.621Z,3.47
2018-05-03T11:34:32.865Z,3.30
2018-05-03T11:37:02.963Z,3.57
2018-05-03T11:39:32.194Z,4.37
2018-05-03T11:42:01.426Z,4.33
2018-05-03T11:44:30.832Z,4.60
2018-05-03T11:47:00.325Z,4.43
2018-05-03T11:49:29.645Z,4.70
2018-05-03T11:51:58.829Z,4.40
2018-05-03T11:54:28.181Z,3.97
2018-05-03T11:56:57.349Z,4.17
2018-05-03T11:59:26.664Z,4.20
2018-05-03T12:01:55.805Z,4.20
2018-05-03T12:04:25.088Z,4.80
2018-05-03T12:06:54.362Z,4.53
2018-05-03T12:09:23.536Z,4.03
2018-05-03T12:11:52.787Z,4.20
2018-05-03T12:14:22.133Z,3.90
2018-05-03T12:16:52.880Z,4.17
2018-05-03T12:19:22.271Z,3.50
2018-05-03T12:21:51.472Z,3.60
2018-05-03T12:24:20.838Z,3.67
2018-05-03T12:26:49.998Z,3.57
2018-05-03T12:29:19.213Z,4.40
2018-05-03T12:31:48.443Z,4.97
2018-05-03T12:34:17.703Z,4.93
2018-05-03T12:36:47.675Z,4.47
2018-05-03T12:39:16.978Z,4.07
2018-05-03T12:41:46.282Z,4.17
2018-05-03T12:44:15.450Z,3.43
2018-05-03T12:46:44.721Z,3.60
2018-05-03T12:49:14.685Z,4.27
2018-05-03T12:51:43.929Z,3.57
2018-05-03T12:54:13.089Z,4.10
2018-05-03T12:56:42.289Z,3.93
2018-05-03T12:59:11.540Z,3.90
2018-05-03T13:01:40.790Z,3.70
2018-05-03T13:04:10.082Z,3.80
2018-05-03T13:06:39.371Z,3.50
2018-05-03T13:09:08.685Z,4.00
2018-05-03T13:11:37.997Z,3.83
2018-05-03T13:14:07.290Z,4.00
2018-05-03T13:16:36.585Z,3.83
2018-05-03T13:19:05.988Z,3.80
2018-05-03T13:21:35.194Z,3.97
2018-05-03T13:24:04.445Z,3.73
2018-05-03T13:26:34.402Z,3.80
2018-05-03T13:29:03.703Z,3.40
2018-05-03T13:31:32.909Z,3.80
2018-05-03T13:34:02.206Z,3.47
2018-05-03T13:36:32.213Z,3.20
2018-05-03T13:39:01.412Z,3.93
2018-05-03T13:41:30.716Z,3.57
2018-05-03T13:43:59.916Z,3.33
2018-05-03T13:46:29.315Z,3.80
2018-05-03T13:48:58.528Z,3.57
2018-05-03T13:51:27.769Z,3.80
2018-05-03T13:53:57.833Z,3.30
2018-05-03T13:56:27.130Z,3.77
2018-05-03T13:58:56.332Z,3.30
2018-05-03T14:01:25.730Z,3.37
2018-05-03T14:03:54.980Z,3.60
2018-05-03T14:06:24.338Z,3.67
2018-05-03T14:08:53.636Z,3.83
2018-05-03T14:11:22.877Z,3.80
2018-05-03T14:13:52.851Z,3.27
2018-05-03T14:16:21.995Z,3.80
2018-05-03T14:18:51.291Z,3.70
2018-05-03T14:21:20.526Z,3.73
2018-05-03T14:23:49.841Z,3.90
2018-05-03T14:26:19.083Z,4.10
2018-05-03T14:28:48.346Z,3.80
2018-05-03T14:31:17.572Z,4.57
2018-05-03T14:33:47.043Z,4.10
2018-05-03T14:36:16.199Z,4.60
2018-05-03T14:38:45.440Z,3.97
2018-05-03T14:41:14.836Z,3.90
2018-05-03T14:43:44.028Z,4.00
2018-05-03T14:46:13.153Z,4.43
2018-05-03T14:48:42.376Z,3.93
2018-05-03T14:51:11.593Z,4.20
2018-05-03T14:53:41.652Z,4.17
2018-05-03T14:56:10.840Z,3.70
2018-05-03T14:58:40.059Z,3.80
2018-05-03T15:01:09.259Z,4.40
2018-05-03T15:03:38.508Z,3.90
2018-05-03T15:06:07.699Z,3.97
2018-05-03T15:08:36.901Z,4.07
2018-05-03T15:11:06.147Z,4.03
2018-05-03T15:13:35.338Z,4.00
2018-05-03T15:16:04.545Z,4.30
2018-05-03T15:18:33.889Z,4.03
2018-05-03T15:21:03.133Z,3.77
2018-05-03T15:23:32.371Z,4.03
2018-05-03T15:26:02.382Z,4.30
2018-05-03T15:28:31.599Z,4.37
2018-05-03T15:31:00.956Z,4.00
2018-05-03T15:33:30.135Z,4.30
2018-05-03T15:35:59.448Z,4.17
2018-05-03T15:38:28.817Z,4.20
2018-05-03T15:40:58.146Z,4.20
2018-05-03T15:43:27.448Z,4.30
2018-05-03T15:45:56.749Z,4.00
2018-05-03T15:48:25.944Z,3.83
2018-05-03T15:50:55.261Z,3.80
2018-05-03T15:53:25.397Z,4.37
2018-05-03T15:55:55.552Z,4.13
2018-05-03T15:58:25.725Z,4.07
2018-05-03T16:00:55.009Z,4.40
2018-05-03T16:03:24.357Z,4.47
2018-05-03T16:05:54.425Z,5.13
2018-05-03T16:08:23.726Z,4.80
2018-05-03T16:10:53.026Z,4.93
2018-05-03T16:13:22.225Z,5.23
2018-05-03T16:15:51.416Z,4.70
2018-05-03T16:18:20.769Z,4.80
2018-05-03T16:20:50.027Z,5.27
2018-05-03T16:23:19.296Z,4.90
2018-05-03T16:25:48.627Z,5.37
2018-05-03T16:28:17.821Z,4.60
2018-05-03T16:30:47.226Z,4.60
2018-05-03T16:33:16.629Z,4.70
2018-05-03T16:35:45.886Z,5.17
2018-05-03T16:38:15.227Z,4.70
2018-05-03T16:40:44.537Z,5.10
2018-05-03T16:43:13.725Z,4.80
2018-05-03T16:45:43.026Z,4.87
2018-05-03T16:48:12.281Z,5.13
2018-05-03T16:50:41.525Z,4.80
2018-05-03T16:53:10.722Z,4.77
2018-05-03T16:55:39.977Z,5.23
2018-05-03T16:58:10.020Z,5.47
2018-05-03T17:00:39.184Z,5.63
2018-05-03T17:03:08.384Z,5.90
2018-05-03T17:05:37.635Z,5.73
2018-05-03T17:08:06.836Z,5.50
2018-05-03T17:10:36.143Z,6.03
2018-05-03T17:13:05.364Z,5.90
2018-05-03T17:15:34.566Z,5.87
2018-05-03T17:18:03.843Z,5.73
2018-05-03T17:20:33.083Z,5.80
2018-05-03T17:23:03.145Z,6.63
2018-05-03T17:25:32.445Z,6.90
2018-05-03T17:28:01.741Z,7.43
2018-05-03T17:30:31.085Z,7.33
2018-05-03T17:33:00.374Z,7.17
2018-05-03T17:35:29.641Z,7.27
2018-05-03T17:37:58.890Z,7.60
2018-05-03T17:40:28.964Z,7.70
2018-05-03T17:42:58.214Z,8.20
2018-05-03T17:45:27.281Z,8.53
2018-05-03T17:47:56.508Z,7.57
2018-05-03T17:50:25.809Z,8.10
2018-05-03T17:52:55.002Z,8.63
2018-05-03T17:55:24.292Z,9.00
2018-05-03T17:57:54.291Z,8.90
2018-05-03T18:00:23.464Z,8.90
2018-05-03T18:02:52.768Z,9.60
2018-05-03T18:05:22.145Z,8.87
2018-05-03T18:07:51.327Z,9.13
2018-05-03T18:10:20.772Z,9.17
2018-05-03T18:12:49.966Z,8.57
2018-05-03T18:15:19.331Z,8.50
2018-05-03T18:17:48.572Z,8.37
2018-05-03T18:20:17.765Z,8.63
2018-05-03T18:22:46.999Z,8.70
2018-05-03T18:25:16.980Z,9.40
2018-05-03T18:27:46.343Z,9.90
2018-05-03T18:30:16.297Z,9.30
2018-05-03T18:32:45.779Z,9.30
2018-05-03T18:35:15.000Z,9.37
2018-05-03T18:37:44.306Z,9.60
2018-05-03T18:40:13.503Z,10.60
2018-05-03T18:42:42.737Z,10.30
2018-05-03T18:45:12.692Z,11.63
2018-05-03T18:47:41.974Z,11.53
2018-05-03T18:50:11.943Z,10.63
2018-05-03T18:52:41.177Z,10.07
2018-05-03T18:55:10.531Z,10.17
2018-05-03T18:57:40.585Z,9.97
2018-05-03T19:00:09.878Z,9.80
2018-05-03T19:02:39.096Z,10.23
2018-05-03T19:05:08.444Z,10.43
2018-05-03T19:07:37.682Z,9.87
2018-05-03T19:10:06.976Z,9.33
2018-05-03T19:12:36.967Z,8.90
2018-05-03T19:15:06.364Z,9.53
2018-05-03T19:17:35.773Z,9.30
2018-05-03T19:20:04.998Z,8.73
2018-05-03T19:22:34.163Z,8.83
2018-05-03T19:25:03.463Z,8.40
2018-05-03T19:27:32.673Z,9.97
2018-05-03T19:30:02.029Z,9.10
2018-05-03T19:32:31.364Z,8.57
2018-05-03T19:35:00.606Z,8.37
2018-05-03T19:37:29.817Z,8.30
2018-05-03T19:39:59.039Z,8.70
2018-05-03T19:42:28.256Z,8.70
2018-05-03T19:44:57.555Z,8.83
2018-05-03T19:47:26.758Z,8.77
2018-05-03T19:49:55.929Z,8.63
2018-05-03T19:52:25.146Z,8.70
2018-05-03T19:54:54.353Z,8.80
2018-05-03T19:57:23.541Z,8.50
2018-05-03T19:59:52.877Z,9.40
2018-05-03T20:02:22.853Z,9.53
2018-05-03T20:04:52.070Z,9.23
2018-05-03T20:07:21.282Z,9.03
2018-05-03T20:09:50.546Z,9.23
2018-05-03T20:12:19.869Z,9.43
2018-05-03T20:14:49.058Z,10.33
2018-05-03T20:17:18.265Z,10.73
2018-05-03T20:19:47.643Z,10.20
2018-05-03T20:22:16.891Z,11.27
2018-05-03T20:24:46.899Z,10.90
2018-05-03T20:27:16.989Z,11.27
2018-05-03T20:29:46.212Z,10.87
2018-05-03T20:32:16.213Z,10.97
2018-05-03T20:34:45.503Z,12.50
2018-05-03T20:37:14.852Z,11.60
2018-05-03T20:39:44.169Z,11.30
2018-05-03T20:42:13.389Z,12.33
2018-05-03T20:44:42.633Z,11.60
2018-05-03T20:47:11.972Z,11.53
2018-05-03T20:49:41.215Z,11.23
2018-05-03T20:52:10.432Z,11.87
2018-05-03T20:54:40.409Z,12.30
2018-05-03T20:57:09.648Z,12.00
2018-05-03T20:59:39.677Z,11.83
2018-05-03T21:02:08.890Z,12.33
2018-05-03T21:04:38.134Z,12.20
2018-05-03T21:07:07.324Z,12.27
2018-05-03T21:09:36.535Z,11.47
2018-05-03T21:12:05.874Z,11.77
2018-05-03T21:14:35.137Z,12.20
2018-05-03T21:17:04.431Z,12.93
2018-05-03T21:19:33.760Z,12.73
2018-05-03T21:22:02.967Z,12.27
2018-05-03T21:24:33.015Z,12.87
2018-05-03T21:27:02.274Z,12.23
2018-05-03T21:29:31.542Z,11.70
2018-05-03T21:32:00.859Z,11.90
2018-05-03T21:34:30.100Z,11.53
2018-05-03T21:36:59.409Z,11.53
2018-05-03T21:39:29.563Z,12.43
2018-05-03T21:41:58.782Z,12.93
2018-05-03T21:44:28.060Z,11.77
2018-05-03T21:46:57.257Z,12.20
2018-05-03T21:49:27.306Z,12.23
2018-05-03T21:51:56.579Z,12.27
2018-05-03T21:54:25.810Z,12.47
2018-05-03T21:56:55.282Z,12.30
2018-05-03T21:59:24.266Z,11.43
2018-05-03T22:01:53.254Z,12.37
2018-05-03T22:04:22.472Z,11.13
2018-05-03T22:06:51.703Z,11.53
2018-05-03T22:09:21.781Z,12.10
2018-05-03T22:11:51.079Z,11.47
2018-05-03T22:14:20.279Z,11.70
2018-05-03T22:16:49.579Z,12.10
2018-05-03T22:19:18.803Z,12.23
2018-05-03T22:21:48.075Z,11.50
2018-05-03T22:24:17.395Z,11.57
2018-05-03T22:26:46.656Z,12.50
2018-05-03T22:29:15.937Z,10.77
2018-05-03T22:31:45.942Z,11.90
2018-05-03T22:34:16.011Z,11.30
2018-05-03T22:36:45.212Z,10.67
2018-05-03T22:39:14.827Z,10.83
2018-05-03T22:41:44.324Z,11.60
2018-05-03T22:44:13.530Z,11.03
2018-05-03T22:46:42.774Z,10.57
2018-05-03T22:49:12.835Z,10.60
2018-05-03T22:51:42.263Z,10.43
2018-05-03T22:54:11.471Z,10.50
2018-05-03T22:56:40.695Z,10.43
2018-05-03T22:59:10.111Z,10.80
2018-05-03T23:01:39.357Z,10.70
2018-05-03T23:04:08.560Z,11.10
2018-05-03T23:06:38.622Z,11.17
2018-05-03T23:09:08.776Z,9.93
2018-05-03T23:11:38.031Z,10.70
2018-05-03T23:14:07.375Z,11.17
2018-05-03T23:16:36.679Z,10.03
2018-05-03T23:19:05.981Z,9.97
2018-05-03T23:21:35.191Z,9.80
2018-05-03T23:24:04.474Z,9.77
2018-05-03T23:26:33.775Z,10.93
2018-05-03T23:29:03.074Z,9.60
2018-05-03T23:31:32.309Z,9.40
2018-05-03T23:34:02.497Z,8.80
2018-05-03T23:36:31.728Z,9.30
2018-05-03T23:39:00.983Z,8.73
2018-05-03T23:41:30.393Z,8.93
2018-05-03T23:43:59.523Z,7.97
2018-05-03T23:46:28.890Z,8.03
2018-05-03T23:48:58.115Z,8.63
2018-05-03T23:51:27.389Z,7.60
2018-05-03T23:53:56.741Z,7.30
2018-05-03T23:56:25.961Z,7.93
2018-05-03T23:58:55.293Z,7.60
